createdAt,value
2018-07-27T11:31:30.876Z,1005.24
2018-07-27T11:32:30.842Z,1005.22
2018-07-27T11:33:30.878Z,1005.26
2018-07-27T11:34:30.822Z,1005.18
2018-07-27T11:35:30.809Z,1005.26
2018-07-27T11:36:30.839Z,1005.32
2018-07-27T11:37:30.867Z,1005.26
2018-07-27T11:38:30.787Z,1005.30
2018-07-27T11:39:30.810Z,1005.34
2018-07-27T11:40:30.766Z,1005.33
2018-07-27T11:41:30.830Z,1005.32
2018-07-27T11:42:30.792Z,1005.33
2018-07-27T11:43:30.736Z,1005.33
2018-07-27T11:44:30.758Z,1005.31
2018-07-27T11:45:30.775Z,1005.40
2018-07-27T11:46:30.711Z,1005.32
2018-07-27T11:47:30.711Z,1005.30
2018-07-27T11:48:30.753Z,1005.31
2018-07-27T11:49:30.712Z,1005.29
2018-07-27T11:50:30.711Z,1005.32
2018-07-27T11:51:30.726Z,1005.30
2018-07-27T11:52:30.702Z,1005.29
2018-07-27T11:53:30.650Z,1005.34
2018-07-27T11:54:30.642Z,1005.33
2018-07-27T11:55:30.662Z,1005.23
2018-07-27T11:56:30.630Z,1005.29
2018-07-27T11:57:30.690Z,1005.27
2018-07-27T11:58:30.649Z,1005.25
2018-07-27T11:59:30.649Z,1005.21
2018-07-27T12:00:30.689Z,1005.15
2018-07-27T12:01:30.602Z,1005.18
2018-07-27T12:02:30.585Z,1005.23
2018-07-27T12:03:30.627Z,1005.14
2018-07-27T12:04:30.564Z,1005.16
2018-07-27T12:05:30.558Z,1005.10
2018-07-27T12:06:31.364Z,1005.19
2018-07-27T12:07:30.544Z,1005.14
2018-07-27T12:08:30.534Z,1005.19
2018-07-27T12:09:30.589Z,1005.17
2018-07-27T12:10:30.519Z,1005.13
2018-07-27T12:11:30.518Z,1005.15
2018-07-27T12:12:30.603Z,1005.16
2018-07-27T12:13:30.503Z,1005.12
2018-07-27T12:14:30.640Z,1005.06
2018-07-27T12:15:30.484Z,1005.02
2018-07-27T12:16:30.532Z,1005.06
2018-07-27T12:17:30.624Z,1005.09
2018-07-27T12:18:30.461Z,1005.10
2018-07-27T12:19:30.454Z,1005.08
2018-07-27T12:20:30.568Z,1005.04
2018-07-27T12:21:30.551Z,1005.01
2018-07-27T12:22:30.458Z,1004.96
2018-07-27T12:23:30.449Z,1004.94
2018-07-27T12:24:30.417Z,1004.95
2018-07-27T12:25:30.413Z,1004.92
2018-07-27T12:26:30.404Z,1004.96
2018-07-27T12:27:30.427Z,1004.95
2018-07-27T12:28:30.406Z,1004.47
2018-07-27T12:29:30.384Z,1004.89
2018-07-27T12:30:30.374Z,1004.87
2018-07-27T12:31:30.370Z,1004.79
2018-07-27T12:32:30.468Z,1004.72
2018-07-27T12:33:30.354Z,1004.78
2018-07-27T12:34:30.344Z,1004.79
2018-07-27T12:35:30.366Z,1004.84
2018-07-27T12:36:30.339Z,1004.36
2018-07-27T12:37:30.329Z,1004.40
2018-07-27T12:38:30.374Z,1004.34
2018-07-27T12:39:30.305Z,1004.31
2018-07-27T12:40:30.300Z,1004.26
2018-07-27T12:41:30.301Z,1004.31
2018-07-27T12:42:30.282Z,1004.54
2018-07-27T12:43:30.326Z,1004.40
2018-07-27T12:44:30.303Z,1004.49
2018-07-27T12:45:30.257Z,1004.58
2018-07-27T12:46:30.295Z,1004.48
2018-07-27T12:47:30.240Z,1004.34
2018-07-27T12:48:30.235Z,1004.40
2018-07-27T12:49:30.278Z,1004.30
2018-07-27T12:50:30.215Z,1004.33
2018-07-27T12:51:30.205Z,1004.47
2018-07-27T12:52:30.198Z,1004.25
2018-07-27T12:53:30.189Z,1004.40
2018-07-27T12:54:30.218Z,1004.19
2018-07-27T12:55:30.172Z,1003.99
2018-07-27T12:56:30.164Z,1003.98
2018-07-27T12:57:30.168Z,1004.10
2018-07-27T12:58:30.151Z,1004.05
2018-07-27T12:59:30.230Z,1004.03
2018-07-27T13:00:30.619Z,1003.99
2018-07-27T13:01:30.117Z,1003.97
2018-07-27T13:02:30.140Z,1003.95
2018-07-27T13:03:30.098Z,1003.96
2018-07-27T13:04:30.090Z,1003.93
2018-07-27T13:05:30.192Z,1003.89
2018-07-27T13:06:30.070Z,1003.84
2018-07-27T13:07:30.061Z,1003.84
2018-07-27T13:08:30.060Z,1003.86
2018-07-27T13:09:30.056Z,1003.82
2018-07-27T13:10:30.292Z,1003.79
2018-07-27T13:11:30.020Z,1003.83
2018-07-27T13:12:30.044Z,1003.79
2018-07-27T13:13:30.013Z,1003.80
2018-07-27T13:14:29.990Z,1003.75
2018-07-27T13:15:29.980Z,1003.72
2018-07-27T13:16:30.019Z,1003.76
2018-07-27T13:17:29.965Z,1003.69
2018-07-27T13:18:29.967Z,1003.72
2018-07-27T13:19:29.968Z,1003.69
2018-07-27T13:20:29.932Z,1003.67
2018-07-27T13:21:29.922Z,1003.67
2018-07-27T13:22:30.068Z,1003.69
2018-07-27T13:23:29.905Z,1003.67
2018-07-27T13:25:29.949Z,1003.59
2018-07-27T13:26:29.914Z,1003.68
2018-07-27T13:27:29.886Z,1003.63
2018-07-27T13:28:29.853Z,1003.64
2018-07-27T13:29:29.842Z,1003.57
2018-07-27T13:30:29.868Z,1003.59
2018-07-27T13:31:29.876Z,1003.57
2018-07-27T13:32:29.836Z,1003.58
2018-07-27T13:33:29.812Z,1003.54
2018-07-27T13:34:29.798Z,1003.49
2018-07-27T13:35:29.784Z,1003.51
2018-07-27T13:36:29.790Z,1003.47
2018-07-27T13:38:29.773Z,1003.46
2018-07-27T13:39:29.874Z,1003.45
2018-07-27T13:40:29.731Z,1003.41
2018-07-27T13:41:29.735Z,1003.39
2018-07-27T13:42:29.748Z,1003.40
2018-07-27T13:43:29.703Z,1003.38
2018-07-27T13:44:29.730Z,1003.39
2018-07-27T13:45:29.684Z,1003.35
2018-07-27T13:46:29.691Z,1003.33
2018-07-27T13:47:29.691Z,1003.33
2018-07-27T13:48:29.655Z,1003.28
2018-07-27T13:49:29.673Z,1003.29
2018-07-27T13:50:29.637Z,1003.29
2018-07-27T13:51:29.625Z,1003.29
2018-07-27T13:52:29.620Z,1003.30
2018-07-27T13:53:29.749Z,1003.29
2018-07-27T13:54:29.656Z,1003.27
2018-07-27T13:55:29.612Z,1003.27
2018-07-27T13:56:29.579Z,1003.26
2018-07-27T13:57:29.609Z,1003.17
2018-07-27T13:58:29.580Z,1003.18
2018-07-27T13:59:29.552Z,1003.12
2018-07-27T14:00:29.606Z,1003.14
2018-07-27T14:01:29.540Z,1003.19
2018-07-27T14:02:29.508Z,1003.18
2018-07-27T14:03:29.506Z,1003.16
2018-07-27T14:04:29.666Z,1003.15
2018-07-27T14:05:29.487Z,1003.11
2018-07-27T14:06:29.493Z,1003.06
2018-07-27T14:07:29.507Z,1003.06
2018-07-27T14:08:29.448Z,1003.07
2018-07-27T14:09:29.494Z,1003.06
2018-07-27T14:10:29.452Z,1002.98
2018-07-27T14:11:29.457Z,1002.99
2018-07-27T14:12:29.408Z,1002.99
2018-07-27T14:13:29.444Z,1003.00
2018-07-27T14:14:29.428Z,1003.00
2018-07-27T14:15:29.377Z,1002.99
2018-07-27T14:16:29.449Z,1002.96
2018-07-27T14:17:29.409Z,1002.95
2018-07-27T14:21:04.937Z,1002.99
2018-07-27T14:22:04.910Z,1002.95
2018-07-27T14:23:04.909Z,1002.95
2018-07-27T14:24:04.885Z,1002.95
2018-07-27T14:25:04.898Z,1002.95
2018-07-27T14:26:04.895Z,1002.93
2018-07-27T14:27:04.861Z,1002.93
2018-07-27T14:28:04.849Z,1002.88
2018-07-27T14:29:04.844Z,1002.90
2018-07-27T14:30:04.855Z,1002.88
2018-07-27T14:31:04.914Z,1002.87
2018-07-27T14:32:04.809Z,1002.86
2018-07-27T14:33:04.795Z,1002.81
2018-07-27T14:34:04.788Z,1002.85
2018-07-27T14:35:04.955Z,1002.85
2018-07-27T14:36:04.790Z,1002.87
2018-07-27T14:37:04.865Z,1002.85
2018-07-27T14:38:04.744Z,1002.88
2018-07-27T14:39:04.739Z,1002.80
2018-07-27T14:40:04.731Z,1002.84
2018-07-27T14:41:04.742Z,1002.81
2018-07-27T14:42:04.734Z,1002.81
2018-07-27T14:43:04.724Z,1002.80
2018-07-27T14:44:04.699Z,1002.83
2018-07-27T14:45:04.737Z,1002.75
2018-07-27T14:46:04.722Z,1002.77
2018-07-27T14:47:04.655Z,1002.72
2018-07-27T14:48:04.659Z,1002.74
2018-07-27T14:49:04.679Z,1002.73
2018-07-27T14:50:04.628Z,1002.68
2018-07-27T14:51:04.647Z,1002.66
2018-07-27T14:52:04.621Z,1002.68
2018-07-27T14:53:04.600Z,1002.64
2018-07-27T14:54:04.610Z,1002.64
2018-07-27T14:55:04.587Z,1002.65
2018-07-27T14:56:04.562Z,1002.65
2018-07-27T14:57:04.587Z,1002.62
2018-07-27T14:58:04.546Z,1002.62
2018-07-27T14:59:04.552Z,1002.57
2018-07-27T15:00:04.521Z,1002.53
2018-07-27T15:01:04.543Z,1002.53
2018-07-27T15:02:04.540Z,1002.51
2018-07-27T15:03:04.490Z,1002.55
2018-07-27T15:04:04.480Z,1002.54
2018-07-27T15:05:04.493Z,1002.50
2018-07-27T15:06:04.464Z,1002.49
2018-07-27T15:07:04.554Z,1002.44
2018-07-27T15:08:04.440Z,1002.45
2018-07-27T15:09:04.456Z,1002.48
2018-07-27T15:10:04.426Z,1002.45
2018-07-27T15:11:04.410Z,1002.48
2018-07-27T15:12:04.405Z,1002.47
2018-07-27T15:13:04.440Z,1002.45
2018-07-27T15:14:04.382Z,1002.47
2018-07-27T15:15:04.369Z,1002.40
2018-07-27T15:16:04.360Z,1002.42
2018-07-27T15:17:04.359Z,1002.38
2018-07-27T15:18:04.377Z,1002.42
2018-07-27T15:19:04.423Z,1002.42
2018-07-27T15:20:04.342Z,1002.46
2018-07-27T15:21:04.309Z,1002.39
2018-07-27T15:22:04.322Z,1002.43
2018-07-27T15:23:04.312Z,1002.46
2018-07-27T15:24:04.306Z,1002.45
2018-07-27T15:25:04.270Z,1002.46
2018-07-27T15:26:04.272Z,1002.37
2018-07-27T15:27:04.246Z,1002.32
2018-07-27T15:28:04.249Z,1002.40
2018-07-27T15:29:04.294Z,1002.33
2018-07-27T15:30:04.215Z,1002.30
2018-07-27T15:31:04.267Z,1002.33
2018-07-27T15:32:04.250Z,1002.28
2018-07-27T15:33:04.186Z,1002.32
2018-07-27T15:34:04.209Z,1002.34
2018-07-27T15:35:04.183Z,1002.32
2018-07-27T15:36:04.158Z,1002.32
2018-07-27T15:37:04.145Z,1002.29
2018-07-27T15:38:04.146Z,1002.27
2018-07-27T15:39:04.125Z,1002.29
2018-07-27T15:40:04.282Z,1002.31
2018-07-27T15:41:04.111Z,1002.32
2018-07-27T15:42:04.130Z,1002.25
2018-07-27T15:43:04.086Z,1002.27
2018-07-27T15:44:04.138Z,1002.25
2018-07-27T15:45:04.111Z,1002.25
2018-07-27T15:46:04.082Z,1002.24
2018-07-27T15:47:04.040Z,1002.21
2018-07-27T15:48:04.031Z,1002.16
2018-07-27T15:49:04.023Z,1002.17
2018-07-27T15:50:04.220Z,1002.15
2018-07-27T15:51:04.002Z,1002.14
2018-07-27T15:52:03.993Z,1002.13
2018-07-27T15:53:03.985Z,1002.10
2018-07-27T15:54:03.977Z,1002.09
2018-07-27T15:55:03.971Z,1002.09
2018-07-27T15:56:04.024Z,1002.10
2018-07-27T15:57:03.942Z,1002.10
2018-07-27T15:58:03.933Z,1002.07
2018-07-27T15:59:03.921Z,1002.09
2018-07-27T16:00:03.917Z,1002.09
2018-07-27T16:01:03.930Z,1002.03
2018-07-27T16:02:04.032Z,1002.04
2018-07-27T16:03:03.921Z,1002.03
2018-07-27T16:04:03.882Z,1002.02
2018-07-27T16:05:03.887Z,1002.02
2018-07-27T16:06:03.875Z,1002.02
2018-07-27T16:07:03.854Z,1001.99
2018-07-27T16:08:03.833Z,1001.98
2018-07-27T16:09:03.844Z,1001.99
2018-07-27T16:10:03.815Z,1001.93
2018-07-27T16:11:03.895Z,1001.93
2018-07-27T16:12:03.789Z,1001.91
2018-07-27T16:13:03.788Z,1001.91
2018-07-27T16:14:03.855Z,1001.88
2018-07-27T16:15:03.761Z,1001.83
2018-07-27T16:16:03.759Z,1001.89
2018-07-27T16:17:03.819Z,1001.85
2018-07-27T16:18:03.746Z,1001.87
2018-07-27T16:19:03.734Z,1001.83
2018-07-27T16:20:03.707Z,1001.85
2018-07-27T16:21:03.712Z,1001.78
2018-07-27T16:22:03.773Z,1001.78
2018-07-27T16:23:03.678Z,1001.78
2018-07-27T16:24:03.986Z,1001.76
2018-07-27T16:25:03.667Z,1001.74
2018-07-27T16:26:03.745Z,1001.77
2018-07-27T16:27:03.692Z,1001.79
2018-07-27T16:28:03.696Z,1001.80
2018-07-27T16:29:03.625Z,1001.74
2018-07-27T16:30:03.612Z,1001.74
2018-07-27T16:31:03.642Z,1001.68
2018-07-27T16:32:03.627Z,1001.70
2018-07-27T16:33:03.586Z,1001.69
2018-07-27T16:34:03.574Z,1001.71
2018-07-27T16:35:03.676Z,1001.74
2018-07-27T16:36:03.568Z,1001.69
2018-07-27T16:37:03.531Z,1001.67
2018-07-27T16:38:03.766Z,1001.73
2018-07-27T16:39:03.522Z,1001.72
2018-07-27T16:40:03.555Z,1001.70
2018-07-27T16:41:03.541Z,1001.70
2018-07-27T16:42:03.527Z,1001.70
2018-07-27T16:43:03.532Z,1001.65
2018-07-27T16:44:03.459Z,1001.65
2018-07-27T16:45:03.477Z,1001.67
2018-07-27T16:46:03.480Z,1001.65
2018-07-27T16:47:03.459Z,1001.71
2018-07-27T16:48:03.432Z,1001.69
2018-07-27T16:49:03.475Z,1001.66
2018-07-27T16:50:03.401Z,1001.68
2018-07-27T16:51:03.412Z,1001.68
2018-07-27T16:52:03.404Z,1001.73
2018-07-27T16:53:03.401Z,1001.68
2018-07-27T16:54:03.445Z,1001.72
2018-07-27T16:55:03.353Z,1001.73
2018-07-27T16:56:03.340Z,1001.72
2018-07-27T16:57:03.360Z,1001.72
2018-07-27T16:58:03.322Z,1001.71
2018-07-27T16:59:03.319Z,1001.65
2018-07-27T17:00:03.363Z,1001.68
2018-07-27T17:01:03.314Z,1001.68
2018-07-27T17:02:03.281Z,1001.67
2018-07-27T17:03:03.293Z,1001.66
2018-07-27T17:04:03.260Z,1001.61
2018-07-27T17:05:03.253Z,1001.59
2018-07-27T17:06:03.342Z,1001.63
2018-07-27T17:07:03.314Z,1001.64
2018-07-27T17:08:03.251Z,1001.63
2018-07-27T17:09:03.218Z,1001.62
2018-07-27T17:10:03.232Z,1001.64
2018-07-27T17:11:03.215Z,1001.66
2018-07-27T17:12:03.188Z,1001.63
2018-07-27T17:13:03.269Z,1001.65
2018-07-27T17:14:03.169Z,1001.64
2018-07-27T17:15:03.160Z,1001.63
2018-07-27T17:16:03.139Z,1001.63
2018-07-27T17:17:03.143Z,1001.60
2018-07-27T17:18:03.153Z,1001.62
2018-07-27T17:19:03.135Z,1001.61
2018-07-27T17:20:03.180Z,1001.58
2018-07-27T17:21:03.095Z,1001.60
2018-07-27T17:22:03.093Z,1001.61
2018-07-27T17:23:03.093Z,1001.55
2018-07-27T17:24:03.136Z,1001.54
2018-07-27T17:25:03.144Z,1001.59
2018-07-27T17:26:03.041Z,1001.56
2018-07-27T17:27:03.037Z,1001.53
2018-07-27T17:28:03.041Z,1001.53
2018-07-27T17:29:03.037Z,1001.51
2018-07-27T17:30:03.053Z,1001.50
2018-07-27T17:31:03.149Z,1001.50
2018-07-27T17:32:02.976Z,1001.51
2018-07-27T17:33:02.966Z,1001.49
2018-07-27T17:34:02.982Z,1001.48
2018-07-27T17:35:03.054Z,1001.50
2018-07-27T17:36:02.941Z,1001.51
2018-07-27T17:37:02.950Z,1001.48
2018-07-27T17:38:02.917Z,1001.50
2018-07-27T17:39:02.909Z,1001.49
2018-07-27T17:40:02.952Z,1001.47
2018-07-27T17:41:02.886Z,1001.52
2018-07-27T17:42:02.890Z,1001.48
2018-07-27T17:43:02.897Z,1001.47
2018-07-27T17:44:02.922Z,1001.49
2018-07-27T17:45:02.865Z,1001.44
2018-07-27T17:46:02.867Z,1001.46
2018-07-27T17:47:02.856Z,1001.47
2018-07-27T17:48:02.868Z,1001.44
2018-07-27T17:49:02.809Z,1001.43
2018-07-27T17:50:02.797Z,1001.42
2018-07-27T17:51:02.944Z,1001.46
2018-07-27T17:52:02.775Z,1001.41
2018-07-27T17:53:02.765Z,1001.43
2018-07-27T17:54:02.759Z,1001.41
2018-07-27T17:55:02.742Z,1001.43
2018-07-27T17:56:02.760Z,1001.41
2018-07-27T17:57:02.786Z,1001.40
2018-07-27T17:58:02.711Z,1001.39
2018-07-27T17:59:02.717Z,1001.41
2018-07-27T18:00:02.712Z,1001.42
2018-07-27T18:01:02.715Z,1001.40
2018-07-27T18:02:02.699Z,1001.38
2018-07-27T18:03:02.738Z,1001.40
2018-07-27T18:04:02.678Z,1001.43
2018-07-27T18:05:02.642Z,1001.42
2018-07-27T18:06:02.630Z,1001.43
2018-07-27T18:07:02.763Z,1001.40
2018-07-27T18:08:02.662Z,1001.41
2018-07-27T18:09:02.639Z,1001.39
2018-07-27T18:10:02.591Z,1001.34
2018-07-27T18:11:02.579Z,1001.32
2018-07-27T18:12:02.599Z,1001.32
2018-07-27T18:13:02.562Z,1001.30
2018-07-27T18:14:02.553Z,1001.34
2018-07-27T18:15:02.563Z,1001.35
2018-07-27T18:16:02.530Z,1001.34
2018-07-27T18:17:02.521Z,1001.31
2018-07-27T18:18:02.536Z,1001.32
2018-07-27T18:19:02.530Z,1001.33
2018-07-27T18:20:02.503Z,1001.33
2018-07-27T18:21:02.521Z,1001.31
2018-07-27T18:22:02.466Z,1001.31
2018-07-27T18:23:02.481Z,1001.36
2018-07-27T18:24:02.447Z,1001.35
2018-07-27T18:25:02.446Z,1001.34
2018-07-27T18:26:02.427Z,1001.34
2018-07-27T18:27:02.500Z,1001.32
2018-07-27T18:28:02.433Z,1001.35
2018-07-27T18:29:02.393Z,1001.33
2018-07-27T18:30:02.420Z,1001.36
2018-07-27T18:31:02.375Z,1001.33
2018-07-27T18:32:02.363Z,1001.32
2018-07-27T18:33:02.417Z,1001.34
2018-07-27T18:34:02.426Z,1001.36
2018-07-27T18:35:02.359Z,1001.34
2018-07-27T18:36:02.322Z,1001.37
2018-07-27T18:37:02.310Z,1001.34
2018-07-27T18:38:02.358Z,1001.34
2018-07-27T18:39:02.296Z,1001.31
2018-07-27T18:40:02.335Z,1001.34
2018-07-27T18:41:02.275Z,1001.30
2018-07-27T18:42:02.261Z,1001.31
2018-07-27T18:43:02.254Z,1001.37
2018-07-27T18:44:02.266Z,1001.35
2018-07-27T18:45:02.242Z,1001.35
2018-07-27T18:46:02.257Z,1001.32
2018-07-27T18:47:09.746Z,1001.33
2018-07-27T18:48:02.199Z,1001.36
2018-07-27T18:49:02.188Z,1001.33
2018-07-27T18:50:02.297Z,1001.34
2018-07-27T18:51:02.173Z,1001.34
2018-07-27T18:52:02.160Z,1001.37
2018-07-27T18:53:02.223Z,1001.39
2018-07-27T18:54:02.192Z,1001.38
2018-07-27T18:55:02.169Z,1001.37
2018-07-27T18:56:02.114Z,1001.36
2018-07-27T18:57:02.107Z,1001.42
2018-07-27T18:58:02.135Z,1001.41
2018-07-27T18:59:02.097Z,1001.40
2018-07-27T19:00:02.114Z,1001.39
2018-07-27T19:01:02.136Z,1001.36
2018-07-27T19:02:02.054Z,1001.38
2018-07-27T19:03:02.087Z,1001.36
2018-07-27T19:04:02.031Z,1001.37
2018-07-27T19:05:02.049Z,1001.35
2018-07-27T19:06:02.037Z,1001.37
2018-07-27T19:07:02.011Z,1001.35
2018-07-27T19:08:01.994Z,1001.36
2018-07-27T19:09:01.996Z,1001.36
2018-07-27T19:10:02.013Z,1001.27
2018-07-27T19:11:01.959Z,1001.34
2018-07-27T19:12:01.975Z,1001.30
2018-07-27T19:13:01.942Z,1001.40
2018-07-27T19:14:02.010Z,1001.38
2018-07-27T19:15:01.942Z,1001.35
2018-07-27T19:16:02.069Z,1001.36
2018-07-27T19:17:01.897Z,1001.31
2018-07-27T19:18:01.896Z,1001.32
2018-07-27T19:19:01.874Z,1001.33
2018-07-27T19:20:01.908Z,1001.32
2018-07-27T19:21:01.856Z,1001.34
2018-07-27T19:22:01.851Z,1001.35
2018-07-27T19:23:01.836Z,1001.40
2018-07-27T19:24:01.928Z,1001.36
2018-07-27T19:25:01.853Z,1001.36
2018-07-27T19:26:01.820Z,1001.41
2018-07-27T19:27:01.791Z,1001.37
2018-07-27T19:28:01.785Z,1001.44
2018-07-27T19:29:01.773Z,1001.43
2018-07-27T19:30:01.829Z,1001.40
2018-07-27T19:31:01.749Z,1001.39
2018-07-27T19:32:01.740Z,1001.43
2018-07-27T19:33:01.727Z,1001.42
2018-07-27T19:34:01.717Z,1001.45
2018-07-27T19:35:01.767Z,1001.46
2018-07-27T19:36:01.764Z,1001.49
2018-07-27T19:37:01.686Z,1001.51
2018-07-27T19:38:01.679Z,1001.44
2018-07-27T19:39:01.667Z,1001.47
2018-07-27T19:40:01.680Z,1001.50
2018-07-27T19:41:01.658Z,1001.50
2018-07-27T19:42:01.724Z,1001.48
2018-07-27T19:43:01.623Z,1001.47
2018-07-27T19:44:01.708Z,1001.51
2018-07-27T19:45:01.632Z,1001.49
2018-07-27T19:46:01.592Z,1001.51
2018-07-27T19:47:01.583Z,1001.51
2018-07-27T19:48:01.616Z,1001.50
2018-07-27T19:49:01.606Z,1001.51
2018-07-27T19:50:01.552Z,1001.49
2018-07-27T19:51:01.579Z,1001.50
2018-07-27T19:52:01.530Z,1001.49
2018-07-27T19:53:01.531Z,1001.52
2018-07-27T19:54:01.553Z,1001.49
2018-07-27T19:55:01.505Z,1001.52
2018-07-27T19:56:01.512Z,1001.56
2018-07-27T19:57:01.493Z,1001.57
2018-07-27T19:58:01.470Z,1001.53
2018-07-27T19:59:01.481Z,1001.55
2018-07-27T20:00:01.450Z,1001.50
2018-07-27T20:01:01.630Z,1001.53
2018-07-27T20:02:01.528Z,1001.53
2018-07-27T20:03:02.693Z,1001.54
2018-07-27T20:04:01.405Z,1001.56
2018-07-27T20:05:01.401Z,1001.57
2018-07-27T20:06:01.511Z,1001.59
2018-07-27T20:07:01.372Z,1001.53
2018-07-27T20:08:01.386Z,1001.58
2018-07-27T20:09:01.349Z,1001.61
2018-07-27T20:10:01.339Z,1001.61
2018-07-27T20:11:01.391Z,1001.65
2018-07-27T20:12:01.344Z,1001.63
2018-07-27T20:13:01.330Z,1001.68
2018-07-27T20:14:01.296Z,1001.68
2018-07-27T20:15:01.285Z,1001.62
2018-07-27T20:16:01.325Z,1001.66
2018-07-27T20:17:01.266Z,1001.69
2018-07-27T20:18:01.253Z,1001.68
2018-07-27T20:19:01.253Z,1001.67
2018-07-27T20:20:01.241Z,1001.68
2018-07-27T20:21:01.249Z,1001.70
2018-07-27T20:22:01.241Z,1001.73
2018-07-27T20:23:01.272Z,1001.66
2018-07-27T20:24:01.190Z,1001.73
2018-07-27T20:25:01.178Z,1001.67
2018-07-27T20:26:01.193Z,1001.66
2018-07-27T20:27:01.157Z,1001.68
2018-07-27T20:28:01.151Z,1001.68
2018-07-27T20:29:01.167Z,1001.67
2018-07-27T20:30:01.126Z,1001.70
2018-07-27T20:31:01.139Z,1001.74
2018-07-27T20:32:01.106Z,1001.73
2018-07-27T20:33:01.094Z,1001.75
2018-07-27T20:34:01.104Z,1001.76
2018-07-27T20:35:01.124Z,1001.75
2018-07-27T20:36:01.087Z,1001.72
2018-07-27T20:37:01.170Z,1001.71
2018-07-27T20:38:01.042Z,1001.76
2018-07-27T20:39:01.030Z,1001.73
2018-07-27T20:40:01.019Z,1001.74
2018-07-27T20:41:01.056Z,1001.73
2018-07-27T20:42:00.997Z,1001.73
2018-07-27T20:43:00.991Z,1001.73
2018-07-27T20:44:01.037Z,1001.73
2018-07-27T20:45:00.986Z,1001.72
2018-07-27T20:46:00.987Z,1001.71
2018-07-27T20:47:00.999Z,1001.70
2018-07-27T20:48:00.934Z,1001.71
2018-07-27T20:49:00.937Z,1001.67
2018-07-27T20:50:00.914Z,1001.67
2018-07-27T20:51:00.927Z,1001.63
2018-07-27T20:52:00.897Z,1001.65
2018-07-27T20:53:00.894Z,1001.63
2018-07-27T20:54:00.871Z,1001.65
2018-07-27T20:55:00.864Z,1001.65
2018-07-27T20:56:00.877Z,1001.62
2018-07-27T20:57:00.848Z,1001.65
2018-07-27T20:58:00.880Z,1001.64
2018-07-27T20:59:00.837Z,1001.61
2018-07-27T21:00:00.836Z,1001.60
2018-07-27T21:01:00.858Z,1001.63
2018-07-27T21:02:00.814Z,1001.62
2018-07-27T21:03:00.775Z,1001.64
2018-07-27T21:04:00.813Z,1001.58
2018-07-27T21:05:00.764Z,1001.62
2018-07-27T21:06:00.798Z,1001.58
2018-07-27T21:07:00.733Z,1001.57
2018-07-27T21:08:00.736Z,1001.59
2018-07-27T21:09:00.717Z,1001.58
2018-07-27T21:10:00.718Z,1001.56
2018-07-27T21:11:00.694Z,1001.53
2018-07-27T21:12:00.741Z,1001.52
2018-07-27T21:13:00.682Z,1001.53
2018-07-27T21:14:00.660Z,1001.56
2018-07-27T21:15:00.649Z,1001.53
2018-07-27T21:16:00.649Z,1001.48
2018-07-27T21:17:00.788Z,1001.47
2018-07-27T21:18:00.647Z,1001.46
2018-07-27T21:19:00.618Z,1001.46
2018-07-27T21:20:00.598Z,1001.46
2018-07-27T21:21:00.587Z,1001.44
2018-07-27T21:22:00.645Z,1001.51
2018-07-27T21:23:00.565Z,1001.50
2018-07-27T21:24:00.559Z,1001.52
2018-07-27T21:25:00.578Z,1001.52
2018-07-27T21:26:00.533Z,1001.54
2018-07-27T21:27:00.576Z,1001.52
2018-07-27T21:28:00.511Z,1001.54
2018-07-27T21:29:00.501Z,1001.56
2018-07-27T21:30:00.491Z,1001.53
2018-07-27T21:31:00.555Z,1001.57
2018-07-27T21:32:00.827Z,1001.54
2018-07-27T21:33:00.479Z,1001.55
2018-07-27T21:34:00.448Z,1001.55
2018-07-27T21:35:00.438Z,1001.52
2018-07-27T21:36:00.434Z,1001.55
2018-07-27T21:37:00.639Z,1001.59
2018-07-27T21:38:00.417Z,1001.53
2018-07-27T21:39:00.408Z,1001.56
2018-07-27T21:40:00.393Z,1001.56
2018-07-27T21:41:00.450Z,1001.54
2018-07-27T21:42:00.405Z,1001.55
2018-07-27T21:43:00.514Z,1001.55
2018-07-27T21:44:00.342Z,1001.52
2018-07-27T21:45:00.334Z,1001.59
2018-07-27T21:46:00.423Z,1001.59
2018-07-27T21:47:00.337Z,1001.60
2018-07-27T21:48:00.298Z,1001.64
2018-07-27T21:49:00.289Z,1001.61
2018-07-27T21:50:00.276Z,1001.54
2018-07-27T21:51:00.316Z,1001.57
2018-07-27T21:52:00.337Z,1001.53
2018-07-27T21:53:00.252Z,1001.50
2018-07-27T21:54:00.255Z,1001.56
2018-07-27T21:55:00.227Z,1001.53
2018-07-27T21:56:00.268Z,1001.50
2018-07-27T21:57:00.378Z,1001.52
2018-07-27T21:58:00.249Z,1001.50
2018-07-27T21:59:00.181Z,1001.51
2018-07-27T22:00:00.217Z,1001.44
2018-07-27T22:01:00.163Z,1001.43
2018-07-27T22:02:00.179Z,1001.43
2018-07-27T22:03:00.164Z,1001.42
2018-07-27T22:04:00.162Z,1001.42
2018-07-27T22:05:00.123Z,1001.41
2018-07-27T22:06:00.107Z,1001.36
2018-07-27T22:07:00.118Z,1001.37
2018-07-27T22:08:00.132Z,1001.38
2018-07-27T22:09:00.075Z,1001.37
2018-07-27T22:10:00.067Z,1001.37
2018-07-27T22:11:00.053Z,1001.34
2018-07-27T22:12:00.116Z,1001.33
2018-07-27T22:13:00.036Z,1001.37
2018-07-27T22:14:00.146Z,1001.36
2018-07-27T22:15:00.012Z,1001.31
2018-07-27T22:16:00.113Z,1001.33
2018-07-27T22:17:00.038Z,1001.29
2018-07-27T22:17:59.979Z,1001.29
2018-07-27T22:18:59.976Z,1001.26
2018-07-27T22:19:59.956Z,1001.26
2018-07-27T22:20:59.944Z,1001.27
2018-07-27T22:21:59.959Z,1001.32
2018-07-27T22:22:59.991Z,1001.29
2018-07-27T22:23:59.913Z,1001.32
2018-07-27T22:24:59.904Z,1001.32
2018-07-27T22:25:59.900Z,1001.36
2018-07-27T22:26:59.983Z,1001.32
2018-07-27T22:27:59.871Z,1001.33
2018-07-27T22:28:59.860Z,1001.34
2018-07-27T22:29:59.935Z,1001.36
2018-07-27T22:30:59.838Z,1001.37
2018-07-27T22:31:59.942Z,1001.36
2018-07-27T22:32:59.879Z,1001.38
2018-07-27T22:33:59.805Z,1001.47
2018-07-27T22:34:59.795Z,1001.40
2018-07-27T22:35:59.783Z,1001.36
2018-07-27T22:36:59.803Z,1001.42
2018-07-27T22:37:59.886Z,1001.41
2018-07-27T22:38:59.859Z,1001.41
2018-07-27T22:39:59.744Z,1001.39
2018-07-27T22:40:59.731Z,1001.35
2018-07-27T22:41:59.771Z,1001.36
2018-07-27T22:42:59.713Z,1001.36
2018-07-27T22:43:59.703Z,1001.34
2018-07-27T22:44:59.727Z,1001.35
2018-07-27T22:45:59.691Z,1001.35
2018-07-27T22:46:59.693Z,1001.36
2018-07-27T22:47:59.658Z,1001.37
2018-07-27T22:48:59.654Z,1001.35
2018-07-27T22:49:59.635Z,1001.35
2018-07-27T22:50:59.630Z,1001.34
2018-07-27T22:51:59.681Z,1001.32
2018-07-27T22:52:59.612Z,1001.35
2018-07-27T22:53:59.604Z,1001.32
2018-07-27T22:54:59.620Z,1001.29
2018-07-27T22:55:59.603Z,1001.26
2018-07-27T22:56:59.589Z,1001.28
2018-07-27T22:57:59.573Z,1001.24
2018-07-27T22:58:59.541Z,1001.26
2018-07-27T22:59:59.530Z,1001.28
2018-07-27T23:00:59.565Z,1001.24
2018-07-27T23:01:59.550Z,1001.27
2018-07-27T23:02:59.497Z,1001.29
2018-07-27T23:03:59.491Z,1001.29
2018-07-27T23:04:59.494Z,1001.27
2018-07-27T23:05:59.498Z,1001.26
2018-07-27T23:06:59.480Z,1001.28
2018-07-27T23:07:59.450Z,1001.25
2018-07-27T23:08:59.451Z,1001.27
2018-07-27T23:09:59.422Z,1001.24
2018-07-27T23:10:59.449Z,1001.25
2018-07-27T23:11:59.489Z,1001.27
2018-07-27T23:12:59.406Z,1001.28
2018-07-27T23:13:59.381Z,1001.22
2018-07-27T23:14:59.418Z,1001.22
2018-07-27T23:15:59.360Z,1001.18
2018-07-27T23:16:59.374Z,1001.19
2018-07-27T23:17:59.346Z,1001.17
2018-07-27T23:18:59.350Z,1001.22
2018-07-27T23:19:59.318Z,1001.25
2018-07-27T23:20:59.307Z,1001.15
2018-07-27T23:21:59.319Z,1001.17
2018-07-27T23:22:59.285Z,1001.18
2018-07-27T23:23:59.274Z,1001.18
2018-07-27T23:24:59.304Z,1001.19
2018-07-27T23:25:59.257Z,1001.18
2018-07-27T23:26:59.272Z,1001.17
2018-07-27T23:27:59.287Z,1001.18
2018-07-27T23:28:59.221Z,1001.19
2018-07-27T23:29:59.210Z,1001.16
2018-07-27T23:30:59.244Z,1001.16
2018-07-27T23:31:59.258Z,1001.15
2018-07-27T23:32:59.195Z,1001.16
2018-07-27T23:33:59.171Z,1001.10
2018-07-27T23:34:59.158Z,1001.11
2018-07-27T23:35:59.148Z,1001.12
2018-07-27T23:36:59.161Z,1001.16
2018-07-27T23:37:59.158Z,1001.16
2018-07-27T23:38:59.114Z,1001.18
2018-07-27T23:39:59.106Z,1001.17
2018-07-27T23:40:59.092Z,1001.19